x

Molasses Reef, Fl (mlrf1) Weather Station

12:00pm - Wed 26th Nov 2014 All times are EST. -5 hours from GMT.

  • Wind
    21mph, 23mph gusts
  • Sea Temp 78°f
  • Air Temp 75°f
  • Sea Pressure 1017.9mb
  • Molasses Reef, Fl
  • Molasses Reef, Fl

More Historic Weather Station data

Upgrade to MSW Pro to gain access to the past 30 days of data for over 8000 Wavebouys and Weather Stations around the globe.

Join Pro

Comparision Forecast

View Surf forecast
   
Wed 11/26 12:00pm 21 23 mph 1017.9mb 78f 75f
11:00am 18 21 mph 1018mb 78f 76f
10:00am 15 17 mph 1017.6mb 78f 79f
9:00am 18 20 mph 1017.2mb 78f 79f
8:00am 16 17 mph 1016.5mb 78f 80f
7:00am 17 18 mph 1015.5mb 78f 80f
6:00am 16 18 mph 1014.7mb 78f 80f
5:00am 15 17 mph 1014.1mb 78f 80f
4:00am 15 16 mph 1014mb 78f 80f
3:00am 16 17 mph 1013.8mb 78f 80f
2:00am 17 18 mph 1013.7mb 78f 80f
1:00am 18 21 mph 1013.5mb 78f 80f
12:00am 15 16 mph 1014mb 78f 80f
Tue 11/25 11:00pm 16 17 mph 1014.9mb 78f 80f
10:00pm 10 11 mph 1015mb 78f 80f
9:00pm 9
mph
1015.2mb 78f 80f
8:00pm 11 14 mph 1015.1mb 79f 80f
7:00pm 13 14 mph 1014.4mb 79f 80f
6:00pm 16 17 mph 1013.7mb 79f 80f
5:00pm 15 16 mph 1013.5mb 79f 80f
4:00pm 18 20 mph 1012.8mb 79f 80f
3:00pm 21 22 mph 1013.3mb 79f 80f
2:00pm 21 22 mph 1013.9mb 79f 80f
1:00pm 21 24 mph 1014.4mb 79f 80f
12:00pm 18 21 mph 1015.8mb 79f 80f
11:00am 16 17 mph 1016.7mb 79f 80f
10:00am 16 18 mph 1017.3mb 79f 80f
9:00am 18 21 mph 1017mb 79f 80f
8:00am 15 18 mph 1016.9mb 78f 80f
7:00am 17 20 mph 1016.8mb 78f 79f
6:00am 14 15 mph 1016.2mb 78f 79f
5:00am 11 14 mph 1015.7mb 79f 80f
4:00am 15 16 mph 1015.8mb 79f 80f
3:00am 13 15 mph 1015.8mb 78f 80f
2:00am 11 13 mph 1016.4mb 79f 80f
1:00am 10 13 mph 1016.9mb 79f 80f
12:00am 11 13 mph 1016.9mb 79f 80f
Mon 11/24 11:00pm 11 13 mph 1017.3mb 79f 80f
10:00pm 10 11 mph 1017.5mb 79f 80f
9:00pm 10 11 mph 1016.8mb 79f 80f
8:00pm 8
mph
1016.6mb 79f 80f
7:00pm 7 8 mph 1016mb 79f 80f
6:00pm 8
mph
1015.5mb 79f 80f
5:00pm 8 9 mph 1015.1mb 79f 80f
4:00pm 10 11 mph 1014.6mb 79f 80f
3:00pm 10 11 mph 1014.5mb 80f 80f
2:00pm 7 8 mph 1014.7mb 79f 80f
1:00pm 9 10 mph 1015.2mb 79f 80f
12:00pm 8
mph
1016.1mb 79f 80f
11:00am 8 9 mph 1016.6mb 78f 80f
10:00am 6 7 mph 1017mb 78f 80f
9:00am 3
mph
1016.8mb 78f 80f
8:00am 7
mph
1016mb 78f 80f
7:00am 8 9 mph 1015.3mb 78f 80f
6:00am 10 11 mph 1014.5mb 78f 79f
5:00am 13 14 mph 1014mb 78f 80f
4:00am 15 16 mph 1013.9mb 78f 80f
3:00am 13 14 mph 1013.9mb 78f 80f
2:00am 13 16 mph 1013.6mb 78f 80f
1:00am 15 17 mph 1013.9mb 78f 80f
12:00am 17 20 mph 1014mb 78f 80f
Sun 11/23 11:00pm 16 17 mph 1014.5mb 78f 80f
10:00pm 11 13 mph 1015mb 78f 80f
9:00pm 13 15 mph 1014.6mb 78f 80f
8:00pm 14 17 mph 1014.1mb 78f 80f
7:00pm 16 18 mph 1013.6mb 78f 80f
6:00pm 17 20 mph 1013.1mb 78f 80f
5:00pm 17 20 mph 1012.9mb 78f 80f
4:00pm 16 20 mph 1012.7mb 78f 80f
3:00pm 16 20 mph 1013.1mb 78f 80f
2:00pm 18 21 mph 1013.3mb 78f 80f
1:00pm 22 23 mph 1014.3mb 78f 80f
12:00pm 22 24 mph 1015.4mb 78f 80f
11:00am 24 26 mph 1015.9mb 78f 79f
10:00am 21 24 mph 1016.9mb 78f 80f
9:00am 22 24 mph 1017mb 78f 80f
8:00am 22 25 mph 1016.6mb 78f 79f
7:00am 22 24 mph 1016.2mb 78f 79f
6:00am 25 28 mph 1015.7mb 78f 79f
5:00am 24 26 mph 1015.2mb 78f 78f
4:00am 23 24 mph 1015.5mb 78f 78f
3:00am 23 24 mph 1015.9mb 78f 78f
2:00am 22 24 mph 1016.4mb 78f 78f
1:00am 26 30 mph 1016.9mb 78f 78f
12:00am 25 30 mph 1017.4mb 78f 78f
Sat 11/22 11:00pm 25 28 mph 1018.1mb 78f 78f
10:00pm 23 26 mph 1018mb 78f 78f
9:00pm 25 29 mph 1017.9mb 78f 78f
8:00pm 26 29 mph 1017.6mb 78f 78f
7:00pm 29 32 mph 1017.2mb 78f 78f